sensor_id;sensor_type;location;lat;lon;timestamp;P1;durP1;ratioP1;P2;durP2;ratioP2
39694;SDS011;25367;-35.352;149.036;2023-04-01T00:00:32;3.67;;;0.45;;
39694;SDS011;25367;-35.352;149.036;2023-04-01T00:03:01;2.20;;;0.50;;
39694;SDS011;25367;-35.352;149.036;2023-04-01T00:05:31;3.78;;;0.55;;
39694;SDS011;25367;-35.352;149.036;2023-04-01T00:08:00;1.13;;;0.45;;
39694;SDS011;25367;-35.352;149.036;2023-04-01T00:10:30;3.70;;;0.50;;
39694;SDS011;25367;-35.352;149.036;2023-04-01T00:12:59;1.85;;;0.30;;
39694;SDS011;25367;-35.352;149.036;2023-04-01T00:15:31;0.98;;;0.20;;
39694;SDS011;25367;-35.352;149.036;2023-04-01T00:18:01;2.10;;;0.73;;
39694;SDS011;25367;-35.352;149.036;2023-04-01T00:20:31;1.15;;;0.50;;
39694;SDS011;25367;-35.352;149.036;2023-04-01T00:23:01;2.58;;;0.65;;
39694;SDS011;25367;-35.352;149.036;2023-04-01T00:25:31;2.55;;;0.60;;
39694;SDS011;25367;-35.352;149.036;2023-04-01T00:28:00;1.67;;;0.85;;
39694;SDS011;25367;-35.352;149.036;2023-04-01T00:30:33;5.38;;;0.85;;
39694;SDS011;25367;-35.352;149.036;2023-04-01T00:33:03;6.00;;;0.70;;
39694;SDS011;25367;-35.352;149.036;2023-04-01T00:35:33;3.92;;;1.00;;
39694;SDS011;25367;-35.352;149.036;2023-04-01T00:38:02;13.75;;;1.05;;
39694;SDS011;25367;-35.352;149.036;2023-04-01T00:40:33;3.05;;;0.68;;
39694;SDS011;25367;-35.352;149.036;2023-04-01T00:43:08;5.32;;;0.80;;
39694;SDS011;25367;-35.352;149.036;2023-04-01T00:45:43;3.70;;;0.50;;
39694;SDS011;25367;-35.352;149.036;2023-04-01T00:48:13;6.32;;;0.82;;
39694;SDS011;25367;-35.352;149.036;2023-04-01T00:50:46;7.30;;;0.88;;
39694;SDS011;25367;-35.352;149.036;2023-04-01T00:53:19;5.68;;;0.80;;
39694;SDS011;25367;-35.352;149.036;2023-04-01T00:55:50;10.23;;;0.98;;
39694;SDS011;25367;-35.352;149.036;2023-04-01T00:58:25;7.97;;;1.58;;
39694;SDS011;25367;-35.352;149.036;2023-04-01T01:01:00;7.18;;;0.93;;
39694;SDS011;25367;-35.352;149.036;2023-04-01T01:03:29;5.22;;;0.80;;
39694;SDS011;25367;-35.352;149.036;2023-04-01T01:06:08;5.53;;;1.15;;
39694;SDS011;25367;-35.352;149.036;2023-04-01T01:08:52;5.30;;;1.42;;
39694;SDS011;25367;-35.352;149.036;2023-04-01T01:11:36;4.05;;;0.90;;
39694;SDS011;25367;-35.352;149.036;2023-04-01T01:16:45;4.47;;;0.93;;
39694;SDS011;25367;-35.352;149.036;2023-04-01T01:19:26;27.10;;;1.60;;
39694;SDS011;25367;-35.352;149.036;2023-04-01T01:22:18;7.25;;;0.75;;
39694;SDS011;25367;-35.352;149.036;2023-04-01T01:25:16;7.50;;;0.85;;
39694;SDS011;25367;-35.352;149.036;2023-04-01T01:28:01;10.07;;;1.15;;
39694;SDS011;25367;-35.352;149.036;2023-04-01T01:30:45;4.43;;;1.23;;
39694;SDS011;25367;-35.352;149.036;2023-04-01T01:33:22;12.23;;;1.63;;
39694;SDS011;25367;-35.352;149.036;2023-04-01T01:36:08;4.20;;;0.73;;
39694;SDS011;25367;-35.352;149.036;2023-04-01T01:38:40;7.15;;;0.98;;
39694;SDS011;25367;-35.352;149.036;2023-04-01T01:41:10;9.65;;;0.88;;
39694;SDS011;25367;-35.352;149.036;2023-04-01T01:46:16;3.97;;;0.82;;
39694;SDS011;25367;-35.352;149.036;2023-04-01T01:48:50;8.27;;;0.80;;
39694;SDS011;25367;-35.352;149.036;2023-04-01T01:51:24;8.30;;;1.10;;
39694;SDS011;25367;-35.352;149.036;2023-04-01T01:53:54;2.88;;;0.70;;
39694;SDS011;25367;-35.352;149.036;2023-04-01T01:56:25;6.28;;;0.95;;
39694;SDS011;25367;-35.352;149.036;2023-04-01T01:58:57;5.05;;;0.98;;
39694;SDS011;25367;-35.352;149.036;2023-04-01T02:01:31;2.33;;;0.60;;
39694;SDS011;25367;-35.352;149.036;2023-04-01T02:04:12;3.65;;;0.73;;
39694;SDS011;25367;-35.352;149.036;2023-04-01T02:06:49;3.72;;;0.82;;
39694;SDS011;25367;-35.352;149.036;2023-04-01T02:09:23;3.90;;;0.80;;
39694;SDS011;25367;-35.352;149.036;2023-04-01T02:11:55;2.95;;;0.77;;
39694;SDS011;25367;-35.352;149.036;2023-04-01T02:14:26;5.70;;;1.23;;
39694;SDS011;25367;-35.352;149.036;2023-04-01T02:16:59;4.93;;;1.13;;
39694;SDS011;25367;-35.352;149.036;2023-04-01T02:19:34;2.35;;;0.73;;
39694;SDS011;25367;-35.352;149.036;2023-04-01T02:22:10;4.20;;;0.70;;
39694;SDS011;25367;-35.352;149.036;2023-04-01T02:24:41;7.90;;;1.02;;
39694;SDS011;25367;-35.352;149.036;2023-04-01T02:27:12;8.35;;;1.40;;
39694;SDS011;25367;-35.352;149.036;2023-04-01T02:29:41;4.35;;;0.90;;
39694;SDS011;25367;-35.352;149.036;2023-04-01T02:32:11;7.88;;;1.13;;
39694;SDS011;25367;-35.352;149.036;2023-04-01T02:34:42;5.03;;;0.85;;
39694;SDS011;25367;-35.352;149.036;2023-04-01T02:37:15;2.88;;;0.93;;
39694;SDS011;25367;-35.352;149.036;2023-04-01T02:39:45;6.15;;;1.00;;
39694;SDS011;25367;-35.352;149.036;2023-04-01T02:42:14;5.93;;;0.80;;
39694;SDS011;25367;-35.352;149.036;2023-04-01T02:44:44;7.15;;;1.13;;
39694;SDS011;25367;-35.352;149.036;2023-04-01T02:47:16;6.45;;;0.85;;
39694;SDS011;25367;-35.352;149.036;2023-04-01T02:49:49;0.80;;;0.60;;
39694;SDS011;25367;-35.352;149.036;2023-04-01T02:52:22;5.88;;;0.80;;
39694;SDS011;25367;-35.352;149.036;2023-04-01T02:54:52;4.50;;;0.63;;
39694;SDS011;25367;-35.352;149.036;2023-04-01T02:57:22;8.88;;;1.70;;
39694;SDS011;25367;-35.352;149.036;2023-04-01T02:59:52;7.10;;;1.10;;
39694;SDS011;25367;-35.352;149.036;2023-04-01T03:02:21;2.83;;;0.90;;
39694;SDS011;25367;-35.352;149.036;2023-04-01T03:04:50;9.68;;;0.80;;
39694;SDS011;25367;-35.352;149.036;2023-04-01T03:07:23;7.90;;;1.15;;
39694;SDS011;25367;-35.352;149.036;2023-04-01T03:09:52;4.87;;;0.80;;
39694;SDS011;25367;-35.352;149.036;2023-04-01T03:12:22;6.35;;;0.90;;
39694;SDS011;25367;-35.352;149.036;2023-04-01T03:14:52;3.25;;;0.90;;
39694;SDS011;25367;-35.352;149.036;2023-04-01T03:17:22;3.28;;;0.85;;
39694;SDS011;25367;-35.352;149.036;2023-04-01T03:19:52;7.60;;;1.00;;
39694;SDS011;25367;-35.352;149.036;2023-04-01T03:22:23;2.70;;;0.93;;
39694;SDS011;25367;-35.352;149.036;2023-04-01T03:24:52;4.00;;;1.25;;
39694;SDS011;25367;-35.352;149.036;2023-04-01T03:27:22;5.53;;;0.90;;
39694;SDS011;25367;-35.352;149.036;2023-04-01T03:29:51;2.72;;;0.75;;
39694;SDS011;25367;-35.352;149.036;2023-04-01T03:32:21;4.30;;;1.10;;
39694;SDS011;25367;-35.352;149.036;2023-04-01T03:34:50;6.88;;;1.08;;
39694;SDS011;25367;-35.352;149.036;2023-04-01T03:37:20;11.35;;;1.00;;
39694;SDS011;25367;-35.352;149.036;2023-04-01T03:39:52;6.20;;;1.20;;
39694;SDS011;25367;-35.352;149.036;2023-04-01T03:42:22;6.35;;;1.00;;
39694;SDS011;25367;-35.352;149.036;2023-04-01T03:44:51;4.35;;;1.00;;
39694;SDS011;25367;-35.352;149.036;2023-04-01T03:47:21;6.68;;;0.93;;
39694;SDS011;25367;-35.352;149.036;2023-04-01T03:49:50;8.23;;;1.00;;
39694;SDS011;25367;-35.352;149.036;2023-04-01T03:52:20;2.70;;;1.00;;
39694;SDS011;25367;-35.352;149.036;2023-04-01T03:54:53;3.10;;;1.10;;
39694;SDS011;25367;-35.352;149.036;2023-04-01T03:57:23;2.28;;;0.88;;
39694;SDS011;25367;-35.352;149.036;2023-04-01T03:59:53;4.05;;;0.90;;
39694;SDS011;25367;-35.352;149.036;2023-04-01T04:02:22;4.47;;;1.20;;
39694;SDS011;25367;-35.352;149.036;2023-04-01T04:04:52;3.45;;;0.77;;
39694;SDS011;25367;-35.352;149.036;2023-04-01T04:07:23;6.35;;;1.00;;
39694;SDS011;25367;-35.352;149.036;2023-04-01T04:10:06;5.68;;;1.10;;
39694;SDS011;25367;-35.352;149.036;2023-04-01T04:12:36;2.25;;;0.88;;
39694;SDS011;25367;-35.352;149.036;2023-04-01T04:15:06;6.32;;;0.98;;
39694;SDS011;25367;-35.352;149.036;2023-04-01T04:17:36;4.35;;;1.35;;
39694;SDS011;25367;-35.352;149.036;2023-04-01T04:20:05;1.70;;;0.88;;
39694;SDS011;25367;-35.352;149.036;2023-04-01T04:22:37;1.88;;;1.38;;
39694;SDS011;25367;-35.352;149.036;2023-04-01T04:27:37;2.58;;;1.20;;
39694;SDS011;25367;-35.352;149.036;2023-04-01T04:30:09;2.70;;;1.00;;
39694;SDS011;25367;-35.352;149.036;2023-04-01T04:32:39;2.20;;;1.00;;
39694;SDS011;25367;-35.352;149.036;2023-04-01T04:35:08;2.60;;;1.30;;
39694;SDS011;25367;-35.352;149.036;2023-04-01T04:37:40;3.25;;;1.48;;
39694;SDS011;25367;-35.352;149.036;2023-04-01T04:40:10;3.55;;;1.25;;
39694;SDS011;25367;-35.352;149.036;2023-04-01T04:42:40;1.63;;;0.85;;
39694;SDS011;25367;-35.352;149.036;2023-04-01T04:45:13;6.43;;;1.45;;
39694;SDS011;25367;-35.352;149.036;2023-04-01T04:47:51;1.67;;;1.15;;
39694;SDS011;25367;-35.352;149.036;2023-04-01T04:50:21;4.50;;;1.73;;
39694;SDS011;25367;-35.352;149.036;2023-04-01T04:52:53;2.97;;;1.00;;
39694;SDS011;25367;-35.352;149.036;2023-04-01T04:55:22;2.67;;;1.10;;
39694;SDS011;25367;-35.352;149.036;2023-04-01T04:58:09;2.28;;;1.08;;
39694;SDS011;25367;-35.352;149.036;2023-04-01T05:00:42;1.75;;;0.93;;
39694;SDS011;25367;-35.352;149.036;2023-04-01T05:03:19;3.00;;;1.40;;
39694;SDS011;25367;-35.352;149.036;2023-04-01T05:05:49;4.78;;;1.38;;
39694;SDS011;25367;-35.352;149.036;2023-04-01T05:08:21;2.38;;;1.48;;
39694;SDS011;25367;-35.352;149.036;2023-04-01T05:10:50;2.80;;;1.20;;
39694;SDS011;25367;-35.352;149.036;2023-04-01T05:13:20;2.00;;;1.13;;
39694;SDS011;25367;-35.352;149.036;2023-04-01T05:15:49;2.50;;;1.23;;
39694;SDS011;25367;-35.352;149.036;2023-04-01T05:18:18;3.90;;;1.30;;
39694;SDS011;25367;-35.352;149.036;2023-04-01T05:20:48;4.15;;;1.17;;
39694;SDS011;25367;-35.352;149.036;2023-04-01T05:23:21;2.38;;;1.40;;
39694;SDS011;25367;-35.352;149.036;2023-04-01T05:25:51;4.82;;;1.50;;
39694;SDS011;25367;-35.352;149.036;2023-04-01T05:28:20;2.25;;;1.38;;
39694;SDS011;25367;-35.352;149.036;2023-04-01T05:30:50;5.68;;;1.88;;
39694;SDS011;25367;-35.352;149.036;2023-04-01T05:33:25;4.60;;;1.30;;
39694;SDS011;25367;-35.352;149.036;2023-04-01T05:35:55;2.35;;;1.70;;
39694;SDS011;25367;-35.352;149.036;2023-04-01T05:38:34;1.88;;;1.30;;
39694;SDS011;25367;-35.352;149.036;2023-04-01T05:41:05;4.85;;;1.92;;
39694;SDS011;25367;-35.352;149.036;2023-04-01T05:43:39;2.35;;;1.58;;
39694;SDS011;25367;-35.352;149.036;2023-04-01T05:46:29;3.03;;;1.70;;
39694;SDS011;25367;-35.352;149.036;2023-04-01T05:49:06;3.13;;;1.75;;
39694;SDS011;25367;-35.352;149.036;2023-04-01T05:51:36;2.20;;;1.50;;
39694;SDS011;25367;-35.352;149.036;2023-04-01T05:54:07;4.50;;;2.10;;
39694;SDS011;25367;-35.352;149.036;2023-04-01T05:56:38;3.57;;;1.93;;
39694;SDS011;25367;-35.352;149.036;2023-04-01T05:59:09;3.17;;;2.05;;
39694;SDS011;25367;-35.352;149.036;2023-04-01T06:01:39;1.85;;;1.48;;
39694;SDS011;25367;-35.352;149.036;2023-04-01T06:04:10;4.20;;;1.67;;
39694;SDS011;25367;-35.352;149.036;2023-04-01T06:06:42;3.80;;;1.80;;
39694;SDS011;25367;-35.352;149.036;2023-04-01T06:09:16;3.10;;;1.55;;
39694;SDS011;25367;-35.352;149.036;2023-04-01T06:11:57;4.65;;;1.80;;
39694;SDS011;25367;-35.352;149.036;2023-04-01T06:14:49;5.85;;;1.80;;
39694;SDS011;25367;-35.352;149.036;2023-04-01T06:17:30;4.57;;;1.90;;
39694;SDS011;25367;-35.352;149.036;2023-04-01T06:20:11;11.05;;;2.20;;
39694;SDS011;25367;-35.352;149.036;2023-04-01T06:22:49;7.03;;;2.40;;
39694;SDS011;25367;-35.352;149.036;2023-04-01T06:25:32;5.75;;;1.83;;
39694;SDS011;25367;-35.352;149.036;2023-04-01T06:31:15;5.15;;;1.80;;
39694;SDS011;25367;-35.352;149.036;2023-04-01T06:34:04;10.93;;;2.05;;
39694;SDS011;25367;-35.352;149.036;2023-04-01T06:36:53;4.70;;;2.10;;
39694;SDS011;25367;-35.352;149.036;2023-04-01T06:39:36;12.33;;;2.10;;
39694;SDS011;25367;-35.352;149.036;2023-04-01T06:45:35;6.70;;;2.63;;
39694;SDS011;25367;-35.352;149.036;2023-04-01T06:48:33;7.88;;;2.13;;
39694;SDS011;25367;-35.352;149.036;2023-04-01T06:51:43;13.75;;;2.70;;
39694;SDS011;25367;-35.352;149.036;2023-04-01T06:54:39;8.48;;;2.42;;
39694;SDS011;25367;-35.352;149.036;2023-04-01T06:57:43;6.72;;;1.98;;
39694;SDS011;25367;-35.352;149.036;2023-04-01T07:00:16;6.05;;;2.10;;
39694;SDS011;25367;-35.352;149.036;2023-04-01T07:02:55;3.55;;;2.05;;
39694;SDS011;25367;-35.352;149.036;2023-04-01T07:05:34;17.77;;;2.58;;
39694;SDS011;25367;-35.352;149.036;2023-04-01T07:08:04;3.25;;;1.90;;
39694;SDS011;25367;-35.352;149.036;2023-04-01T07:10:41;8.52;;;2.15;;
39694;SDS011;25367;-35.352;149.036;2023-04-01T07:13:36;5.30;;;2.13;;
39694;SDS011;25367;-35.352;149.036;2023-04-01T07:16:16;8.52;;;2.33;;
39694;SDS011;25367;-35.352;149.036;2023-04-01T07:18:48;6.65;;;2.13;;
39694;SDS011;25367;-35.352;149.036;2023-04-01T07:21:26;5.97;;;2.30;;
39694;SDS011;25367;-35.352;149.036;2023-04-01T07:24:02;3.05;;;1.80;;
39694;SDS011;25367;-35.352;149.036;2023-04-01T07:26:39;5.18;;;2.05;;
39694;SDS011;25367;-35.352;149.036;2023-04-01T07:29:17;4.50;;;2.20;;
39694;SDS011;25367;-35.352;149.036;2023-04-01T07:34:49;4.43;;;2.53;;
39694;SDS011;25367;-35.352;149.036;2023-04-01T07:40:02;5.35;;;2.67;;
39694;SDS011;25367;-35.352;149.036;2023-04-01T07:42:44;14.68;;;2.90;;
39694;SDS011;25367;-35.352;149.036;2023-04-01T07:45:27;7.00;;;2.85;;
39694;SDS011;25367;-35.352;149.036;2023-04-01T07:48:09;7.55;;;2.58;;
39694;SDS011;25367;-35.352;149.036;2023-04-01T07:50:52;9.05;;;2.88;;
39694;SDS011;25367;-35.352;149.036;2023-04-01T07:53:29;9.52;;;3.25;;
39694;SDS011;25367;-35.352;149.036;2023-04-01T07:56:05;4.70;;;2.40;;
39694;SDS011;25367;-35.352;149.036;2023-04-01T07:58:42;38.75;;;3.47;;
39694;SDS011;25367;-35.352;149.036;2023-04-01T08:01:44;10.07;;;2.55;;
39694;SDS011;25367;-35.352;149.036;2023-04-01T08:04:24;7.68;;;2.97;;
39694;SDS011;25367;-35.352;149.036;2023-04-01T08:07:06;8.40;;;2.47;;
39694;SDS011;25367;-35.352;149.036;2023-04-01T08:09:47;9.77;;;3.03;;
39694;SDS011;25367;-35.352;149.036;2023-04-01T08:12:45;6.78;;;2.58;;
39694;SDS011;25367;-35.352;149.036;2023-04-01T08:15:49;5.68;;;2.47;;
39694;SDS011;25367;-35.352;149.036;2023-04-01T08:18:41;10.90;;;2.30;;
39694;SDS011;25367;-35.352;149.036;2023-04-01T08:21:15;3.67;;;2.05;;
39694;SDS011;25367;-35.352;149.036;2023-04-01T08:23:48;6.25;;;2.40;;
39694;SDS011;25367;-35.352;149.036;2023-04-01T08:26:22;6.53;;;2.42;;
39694;SDS011;25367;-35.352;149.036;2023-04-01T08:28:59;3.40;;;2.10;;
39694;SDS011;25367;-35.352;149.036;2023-04-01T08:31:34;3.90;;;2.17;;
39694;SDS011;25367;-35.352;149.036;2023-04-01T08:34:12;4.70;;;2.40;;
39694;SDS011;25367;-35.352;149.036;2023-04-01T08:36:49;3.90;;;2.10;;
39694;SDS011;25367;-35.352;149.036;2023-04-01T08:39:24;4.93;;;2.35;;
39694;SDS011;25367;-35.352;149.036;2023-04-01T08:45:16;3.20;;;2.13;;
39694;SDS011;25367;-35.352;149.036;2023-04-01T08:51:20;3.53;;;1.85;;
39694;SDS011;25367;-35.352;149.036;2023-04-01T08:54:34;3.50;;;2.22;;
39694;SDS011;25367;-35.352;149.036;2023-04-01T08:57:39;2.92;;;2.08;;
39694;SDS011;25367;-35.352;149.036;2023-04-01T09:00:36;8.38;;;2.28;;
39694;SDS011;25367;-35.352;149.036;2023-04-01T09:03:29;4.18;;;2.25;;
39694;SDS011;25367;-35.352;149.036;2023-04-01T09:06:17;5.80;;;2.10;;
39694;SDS011;25367;-35.352;149.036;2023-04-01T09:09:07;3.28;;;1.92;;
39694;SDS011;25367;-35.352;149.036;2023-04-01T09:12:25;4.97;;;2.10;;
39694;SDS011;25367;-35.352;149.036;2023-04-01T09:27:15;5.30;;;2.10;;
39694;SDS011;25367;-35.352;149.036;2023-04-01T09:33:15;2.60;;;1.60;;
39694;SDS011;25367;-35.352;149.036;2023-04-01T09:36:04;6.60;;;1.92;;
39694;SDS011;25367;-35.352;149.036;2023-04-01T09:38:43;5.25;;;1.65;;
39694;SDS011;25367;-35.352;149.036;2023-04-01T09:41:27;3.25;;;1.63;;
39694;SDS011;25367;-35.352;149.036;2023-04-01T09:44:08;6.38;;;1.85;;
39694;SDS011;25367;-35.352;149.036;2023-04-01T09:47:09;7.95;;;1.80;;
39694;SDS011;25367;-35.352;149.036;2023-04-01T09:50:06;3.33;;;1.65;;
39694;SDS011;25367;-35.352;149.036;2023-04-01T09:53:00;4.03;;;1.88;;
39694;SDS011;25367;-35.352;149.036;2023-04-01T09:56:03;18.20;;;1.90;;
39694;SDS011;25367;-35.352;149.036;2023-04-01T10:11:59;3.45;;;1.40;;
39694;SDS011;25367;-35.352;149.036;2023-04-01T10:15:10;3.75;;;1.70;;
39694;SDS011;25367;-35.352;149.036;2023-04-01T10:18:09;2.15;;;1.33;;
39694;SDS011;25367;-35.352;149.036;2023-04-01T10:21:19;3.20;;;1.38;;
39694;SDS011;25367;-35.352;149.036;2023-04-01T10:33:39;9.90;;;1.67;;
39694;SDS011;25367;-35.352;149.036;2023-04-01T10:52:32;8.88;;;1.33;;
39694;SDS011;25367;-35.352;149.036;2023-04-01T10:55:46;3.92;;;1.52;;
39694;SDS011;25367;-35.352;149.036;2023-04-01T10:59:04;5.30;;;1.40;;
39694;SDS011;25367;-35.352;149.036;2023-04-01T11:11:48;2.47;;;1.20;;
39694;SDS011;25367;-35.352;149.036;2023-04-01T11:14:51;4.95;;;1.35;;
39694;SDS011;25367;-35.352;149.036;2023-04-01T11:31:29;2.78;;;1.52;;
39694;SDS011;25367;-35.352;149.036;2023-04-01T11:34:24;2.40;;;1.48;;
39694;SDS011;25367;-35.352;149.036;2023-04-01T11:37:16;2.95;;;1.30;;
39694;SDS011;25367;-35.352;149.036;2023-04-01T11:40:12;5.40;;;1.60;;
39694;SDS011;25367;-35.352;149.036;2023-04-01T11:43:15;3.43;;;1.27;;
39694;SDS011;25367;-35.352;149.036;2023-04-01T11:46:16;2.15;;;1.00;;
39694;SDS011;25367;-35.352;149.036;2023-04-01T11:48:56;4.35;;;1.27;;
39694;SDS011;25367;-35.352;149.036;2023-04-01T11:54:31;3.15;;;1.38;;
39694;SDS011;25367;-35.352;149.036;2023-04-01T11:57:22;4.93;;;1.48;;
39694;SDS011;25367;-35.352;149.036;2023-04-01T12:03:30;1.98;;;1.30;;
39694;SDS011;25367;-35.352;149.036;2023-04-01T12:06:20;2.35;;;1.52;;
39694;SDS011;25367;-35.352;149.036;2023-04-01T12:08:59;5.90;;;1.40;;
39694;SDS011;25367;-35.352;149.036;2023-04-01T12:11:38;4.78;;;1.60;;
39694;SDS011;25367;-35.352;149.036;2023-04-01T12:14:16;5.43;;;1.13;;
39694;SDS011;25367;-35.352;149.036;2023-04-01T12:16:57;4.10;;;1.52;;
39694;SDS011;25367;-35.352;149.036;2023-04-01T12:19:34;3.67;;;1.65;;
39694;SDS011;25367;-35.352;149.036;2023-04-01T12:22:26;3.97;;;1.70;;
39694;SDS011;25367;-35.352;149.036;2023-04-01T12:25:21;3.72;;;1.65;;
39694;SDS011;25367;-35.352;149.036;2023-04-01T12:28:02;2.90;;;1.33;;
39694;SDS011;25367;-35.352;149.036;2023-04-01T12:30:46;3.63;;;1.30;;
39694;SDS011;25367;-35.352;149.036;2023-04-01T12:33:37;4.93;;;1.70;;
39694;SDS011;25367;-35.352;149.036;2023-04-01T12:36:26;4.70;;;1.93;;
39694;SDS011;25367;-35.352;149.036;2023-04-01T12:39:17;6.03;;;1.77;;
39694;SDS011;25367;-35.352;149.036;2023-04-01T12:42:07;5.72;;;1.50;;
39694;SDS011;25367;-35.352;149.036;2023-04-01T12:44:57;3.20;;;1.35;;
39694;SDS011;25367;-35.352;149.036;2023-04-01T12:53:39;2.03;;;1.23;;
39694;SDS011;25367;-35.352;149.036;2023-04-01T12:56:41;2.72;;;1.08;;
39694;SDS011;25367;-35.352;149.036;2023-04-01T12:59:25;2.50;;;1.30;;
39694;SDS011;25367;-35.352;149.036;2023-04-01T13:02:10;3.58;;;1.13;;
39694;SDS011;25367;-35.352;149.036;2023-04-01T13:04:56;3.13;;;1.20;;
39694;SDS011;25367;-35.352;149.036;2023-04-01T13:07:54;3.38;;;1.10;;
39694;SDS011;25367;-35.352;149.036;2023-04-01T13:10:46;4.00;;;1.10;;
39694;SDS011;25367;-35.352;149.036;2023-04-01T13:16:28;4.10;;;1.45;;
39694;SDS011;25367;-35.352;149.036;2023-04-01T13:19:03;4.00;;;1.35;;
39694;SDS011;25367;-35.352;149.036;2023-04-01T13:21:39;3.38;;;1.40;;
39694;SDS011;25367;-35.352;149.036;2023-04-01T13:24:22;3.28;;;1.17;;
39694;SDS011;25367;-35.352;149.036;2023-04-01T13:26:59;5.55;;;1.35;;
39694;SDS011;25367;-35.352;149.036;2023-04-01T13:29:35;4.85;;;1.15;;
39694;SDS011;25367;-35.352;149.036;2023-04-01T13:32:15;1.90;;;0.95;;
39694;SDS011;25367;-35.352;149.036;2023-04-01T13:34:56;2.83;;;1.10;;
39694;SDS011;25367;-35.352;149.036;2023-04-01T13:37:39;3.35;;;1.08;;
39694;SDS011;25367;-35.352;149.036;2023-04-01T13:40:40;2.90;;;1.35;;
39694;SDS011;25367;-35.352;149.036;2023-04-01T13:43:18;2.75;;;0.98;;
39694;SDS011;25367;-35.352;149.036;2023-04-01T13:51:53;2.35;;;1.17;;
39694;SDS011;25367;-35.352;149.036;2023-04-01T13:55:06;3.33;;;1.27;;
39694;SDS011;25367;-35.352;149.036;2023-04-01T14:01:07;2.08;;;1.00;;
39694;SDS011;25367;-35.352;149.036;2023-04-01T14:03:53;2.35;;;1.08;;
39694;SDS011;25367;-35.352;149.036;2023-04-01T14:06:49;1.75;;;1.05;;
39694;SDS011;25367;-35.352;149.036;2023-04-01T14:12:21;2.22;;;0.80;;
39694;SDS011;25367;-35.352;149.036;2023-04-01T14:15:02;2.28;;;1.13;;
39694;SDS011;25367;-35.352;149.036;2023-04-01T14:17:48;1.83;;;0.95;;
39694;SDS011;25367;-35.352;149.036;2023-04-01T14:20:33;1.30;;;0.95;;
39694;SDS011;25367;-35.352;149.036;2023-04-01T14:23:13;2.28;;;1.08;;
39694;SDS011;25367;-35.352;149.036;2023-04-01T14:26:18;2.92;;;1.33;;
39694;SDS011;25367;-35.352;149.036;2023-04-01T14:29:11;1.65;;;0.77;;
39694;SDS011;25367;-35.352;149.036;2023-04-01T14:31:54;1.52;;;0.90;;
39694;SDS011;25367;-35.352;149.036;2023-04-01T14:34:44;2.00;;;0.88;;
39694;SDS011;25367;-35.352;149.036;2023-04-01T14:37:33;3.10;;;1.00;;
39694;SDS011;25367;-35.352;149.036;2023-04-01T14:40:30;1.33;;;0.80;;
39694;SDS011;25367;-35.352;149.036;2023-04-01T14:49:21;1.40;;;0.77;;
39694;SDS011;25367;-35.352;149.036;2023-04-01T14:52:03;1.73;;;0.57;;
39694;SDS011;25367;-35.352;149.036;2023-04-01T14:54:37;1.65;;;0.75;;
39694;SDS011;25367;-35.352;149.036;2023-04-01T14:57:13;1.60;;;0.90;;
39694;SDS011;25367;-35.352;149.036;2023-04-01T14:59:47;1.27;;;0.88;;
39694;SDS011;25367;-35.352;149.036;2023-04-01T15:05:15;1.27;;;0.70;;
39694;SDS011;25367;-35.352;149.036;2023-04-01T15:07:59;4.00;;;1.00;;
39694;SDS011;25367;-35.352;149.036;2023-04-01T15:10:43;1.35;;;0.50;;
39694;SDS011;25367;-35.352;149.036;2023-04-01T15:13:39;1.23;;;0.70;;
39694;SDS011;25367;-35.352;149.036;2023-04-01T15:16:21;1.33;;;0.50;;
39694;SDS011;25367;-35.352;149.036;2023-04-01T15:18:58;2.03;;;0.77;;
39694;SDS011;25367;-35.352;149.036;2023-04-01T15:21:41;1.83;;;0.70;;
39694;SDS011;25367;-35.352;149.036;2023-04-01T15:24:34;1.73;;;0.68;;
39694;SDS011;25367;-35.352;149.036;2023-04-01T15:27:16;1.58;;;0.75;;
39694;SDS011;25367;-35.352;149.036;2023-04-01T15:30:21;1.00;;;0.65;;
39694;SDS011;25367;-35.352;149.036;2023-04-01T15:33:06;1.30;;;0.60;;
39694;SDS011;25367;-35.352;149.036;2023-04-01T15:35:51;1.58;;;0.70;;
39694;SDS011;25367;-35.352;149.036;2023-04-01T15:38:32;1.08;;;0.52;;
39694;SDS011;25367;-35.352;149.036;2023-04-01T15:41:09;1.42;;;0.75;;
39694;SDS011;25367;-35.352;149.036;2023-04-01T15:43:43;1.45;;;0.50;;
39694;SDS011;25367;-35.352;149.036;2023-04-01T15:49:26;0.77;;;0.60;;
39694;SDS011;25367;-35.352;149.036;2023-04-01T15:52:03;0.82;;;0.65;;
39694;SDS011;25367;-35.352;149.036;2023-04-01T15:54:40;1.30;;;0.60;;
39694;SDS011;25367;-35.352;149.036;2023-04-01T15:57:36;0.85;;;0.50;;
39694;SDS011;25367;-35.352;149.036;2023-04-01T16:00:20;0.22;;;0.22;;
39694;SDS011;25367;-35.352;149.036;2023-04-01T16:06:16;0.90;;;0.50;;
39694;SDS011;25367;-35.352;149.036;2023-04-01T16:09:14;1.13;;;0.60;;
39694;SDS011;25367;-35.352;149.036;2023-04-01T16:12:02;0.50;;;0.40;;
39694;SDS011;25367;-35.352;149.036;2023-04-01T16:14:40;1.10;;;0.50;;
39694;SDS011;25367;-35.352;149.036;2023-04-01T16:17:31;0.77;;;0.52;;
39694;SDS011;25367;-35.352;149.036;2023-04-01T16:20:22;2.47;;;0.60;;
39694;SDS011;25367;-35.352;149.036;2023-04-01T16:23:02;1.17;;;0.60;;
39694;SDS011;25367;-35.352;149.036;2023-04-01T16:25:40;2.80;;;0.88;;
39694;SDS011;25367;-35.352;149.036;2023-04-01T16:28:15;0.45;;;0.35;;
39694;SDS011;25367;-35.352;149.036;2023-04-01T16:30:55;0.95;;;0.40;;
39694;SDS011;25367;-35.352;149.036;2023-04-01T16:33:28;2.13;;;0.57;;
39694;SDS011;25367;-35.352;149.036;2023-04-01T16:36:13;1.50;;;0.85;;
39694;SDS011;25367;-35.352;149.036;2023-04-01T16:38:52;2.25;;;0.52;;
39694;SDS011;25367;-35.352;149.036;2023-04-01T16:41:37;0.80;;;0.70;;
39694;SDS011;25367;-35.352;149.036;2023-04-01T16:44:17;0.60;;;0.40;;
39694;SDS011;25367;-35.352;149.036;2023-04-01T16:46:49;0.65;;;0.50;;
39694;SDS011;25367;-35.352;149.036;2023-04-01T16:49:25;0.60;;;0.60;;
39694;SDS011;25367;-35.352;149.036;2023-04-01T16:52:15;0.63;;;0.50;;
39694;SDS011;25367;-35.352;149.036;2023-04-01T16:54:58;1.40;;;0.60;;
39694;SDS011;25367;-35.352;149.036;2023-04-01T16:57:31;1.65;;;0.73;;
39694;SDS011;25367;-35.352;149.036;2023-04-01T17:00:15;1.33;;;0.60;;
39694;SDS011;25367;-35.352;149.036;2023-04-01T17:02:54;0.70;;;0.52;;
39694;SDS011;25367;-35.352;149.036;2023-04-01T17:11:36;0.93;;;0.40;;
39694;SDS011;25367;-35.352;149.036;2023-04-01T17:14:14;0.75;;;0.40;;
39694;SDS011;25367;-35.352;149.036;2023-04-01T17:17:00;1.85;;;0.65;;
39694;SDS011;25367;-35.352;149.036;2023-04-01T17:19:55;0.57;;;0.47;;
39694;SDS011;25367;-35.352;149.036;2023-04-01T17:22:37;0.30;;;0.30;;
39694;SDS011;25367;-35.352;149.036;2023-04-01T17:28:19;1.42;;;0.50;;
39694;SDS011;25367;-35.352;149.036;2023-04-01T17:30:59;1.30;;;0.63;;
39694;SDS011;25367;-35.352;149.036;2023-04-01T17:33:49;0.98;;;0.40;;
39694;SDS011;25367;-35.352;149.036;2023-04-01T17:36:53;0.50;;;0.30;;
39694;SDS011;25367;-35.352;149.036;2023-04-01T17:39:35;0.55;;;0.38;;
39694;SDS011;25367;-35.352;149.036;2023-04-01T17:42:19;0.85;;;0.57;;
39694;SDS011;25367;-35.352;149.036;2023-04-01T17:44:53;1.63;;;0.50;;
39694;SDS011;25367;-35.352;149.036;2023-04-01T17:47:32;0.90;;;0.30;;
39694;SDS011;25367;-35.352;149.036;2023-04-01T17:50:17;1.08;;;0.45;;
39694;SDS011;25367;-35.352;149.036;2023-04-01T17:52:56;0.22;;;0.20;;
39694;SDS011;25367;-35.352;149.036;2023-04-01T17:58:42;0.73;;;0.40;;
39694;SDS011;25367;-35.352;149.036;2023-04-01T18:01:17;0.30;;;0.25;;